»·PEaware :: PSV130 KBUR-KLAS

PSV130 :: KBUR-KLAS

FLIGHT INFORMATION

Flight Status: Arrived
Operator:
Power Set Virtual (website)
More flights by this operator :: More flights under this callsign
Pilot: David J. (24489)
Aircraft: AIRBUS A320
(A320)
More flights by this aircraft type
Origin: KBUR Bob Hope-Burbank
United States
Destination: KLAS McCarran Intl
United States
More flights between these airports :: More routes between these airports
Route: SLAPP1 MISEN KEPEC6
File this flight plan on PilotEdge
Remarks: RMK / SIMBRIEF
Altitude:
(Current/Filed)
33,000ft
Speed:
(Current/Filed)
468kts
Departed: 01-Aug-20 08:38 PM
Arrived: 01-Aug-20 09:31 PM
Distance/Time
Traveled:
0nm/0:53
Distance/Time
To Go:
Arrived

Flight Plot

Page will automatically refresh every two minutes.


Map Options




Map Legend


Flown Route
Filed Route
Departure Airport
Arrival Airport
Navaid (VOR, NDB)
Fix

Horizontal Profiles

Position Reports

Time Latitude Longitude Heading Altitude Ground
Speed
01-Aug-20 20:09 34.196809 -118.350593 181 735ft 0kts
01-Aug-20 20:10 34.196809 -118.350593 181 735ft 0kts
01-Aug-20 20:11 34.196809 -118.350593 181 735ft 0kts
01-Aug-20 20:12 34.196809 -118.350593 181 735ft 0kts
01-Aug-20 20:13 34.196809 -118.350593 181 735ft 0kts
01-Aug-20 20:14 34.196809 -118.350593 181 735ft 0kts
01-Aug-20 20:15 34.196809 -118.350593 181 735ft 0kts
01-Aug-20 20:16 34.196809 -118.350593 181 735ft 0kts
01-Aug-20 20:17 34.196809 -118.350593 181 735ft 0kts
01-Aug-20 20:18 34.196809 -118.350593 181 735ft 0kts
01-Aug-20 20:19 34.196809 -118.350593 181 735ft 0kts
01-Aug-20 20:20 34.196809 -118.350593 181 735ft 0kts
01-Aug-20 20:21 34.196809 -118.350593 181 735ft 0kts
01-Aug-20 20:22 34.196809 -118.350593 181 735ft 0kts
01-Aug-20 20:23 34.196809 -118.350593 181 735ft 0kts
01-Aug-20 20:24 34.196809 -118.350593 181 735ft 0kts
01-Aug-20 20:25 34.196809 -118.350593 181 735ft 0kts
01-Aug-20 20:26 34.197132 -118.350325 269 735ft 0kts
01-Aug-20 20:27 34.197132 -118.350326 269 735ft 0kts
01-Aug-20 20:28 34.197132 -118.350326 269 735ft 0kts
01-Aug-20 20:29 34.197132 -118.350326 269 735ft 0kts
01-Aug-20 20:30 34.197127 -118.350561 268 735ft 4kts
01-Aug-20 20:31 34.197167 -118.353093 271 735ft 9kts
01-Aug-20 20:32 34.199844 -118.355587 347 735ft 16kts
01-Aug-20 20:33 34.204427 -118.356893 347 735ft 17kts
01-Aug-20 20:34 34.209279 -118.358212 347 735ft 18kts
01-Aug-20 20:35 34.211487 -118.358987 307 735ft 0kts
01-Aug-20 20:36 34.211410 -118.360205 161 735ft 1kts
01-Aug-20 20:37 34.198142 -118.356431 165 800ft 155kts
01-Aug-20 20:38 34.160425 -118.374698 230 3048ft 182kts
01-Aug-20 20:39 34.117195 -118.422752 223 4184ft 242kts
01-Aug-20 20:40 34.060862 -118.480884 221 6257ft 278kts
01-Aug-20 20:41 34.000530 -118.541684 221 8650ft 288kts
01-Aug-20 20:42 33.987411 -118.627704 302 10668ft 301kts
01-Aug-20 20:43 34.067209 -118.661254 15 11383ft 378kts
01-Aug-20 20:44 34.157320 -118.583795 33 12946ft 406kts
01-Aug-20 20:45 34.252320 -118.507509 33 14898ft 413kts
01-Aug-20 20:46 34.347794 -118.427898 33 16717ft 420kts
01-Aug-20 20:47 34.445031 -118.347496 33 18357ft 427kts
01-Aug-20 20:48 34.538935 -118.256948 39 19418ft 435kts
01-Aug-20 20:49 34.633028 -118.162129 41 20635ft 446kts
01-Aug-20 20:50 34.683227 -118.027843 80 19556ft 443kts
01-Aug-20 20:51 34.697306 -117.880206 85 19366ft 444kts
01-Aug-20 20:52 34.705650 -117.730069 87 20814ft 449kts
01-Aug-20 20:53 34.711591 -117.577171 87 21941ft 458kts
01-Aug-20 20:54 34.735527 -117.424845 70 22976ft 464kts
01-Aug-20 20:55 34.776699 -117.274503 71 23945ft 472kts
01-Aug-20 20:56 34.816697 -117.121793 71 24851ft 478kts
01-Aug-20 20:57 34.857333 -116.967049 71 25524ft 478kts
01-Aug-20 20:58 34.898067 -116.811199 71 26187ft 487kts
01-Aug-20 20:59 34.955424 -116.662345 53 26830ft 487kts
01-Aug-20 21:00 35.032382 -116.529252 54 24171ft 471kts
01-Aug-20 21:01 35.105238 -116.400864 48 23978ft 457kts
01-Aug-20 21:02 35.193737 -116.289857 44 23547ft 452kts
01-Aug-20 21:03 35.280534 -116.180418 44 22420ft 445kts
01-Aug-20 21:04 35.366178 -116.072706 44 21287ft 436kts
01-Aug-20 21:05 35.449993 -115.966749 44 20293ft 429kts
01-Aug-20 21:06 35.531976 -115.862794 44 18580ft 413kts
01-Aug-20 21:07 35.609153 -115.764665 45 16300ft 380kts
01-Aug-20 21:08 35.677481 -115.677508 45 15202ft 334kts
01-Aug-20 21:09 35.741923 -115.596171 38 14128ft 329kts
01-Aug-20 21:10 35.827210 -115.570469 358 13073ft 322kts
01-Aug-20 21:11 35.916407 -115.566851 0 13049ft 323kts
01-Aug-20 21:12 35.987271 -115.522822 70 12730ft 299kts
01-Aug-20 21:13 36.014666 -115.425802 68 11591ft 298kts
01-Aug-20 21:14 36.028794 -115.328137 100 10423ft 290kts
01-Aug-20 21:15 36.020273 -115.229013 97 9290ft 289kts
01-Aug-20 21:16 36.013284 -115.132757 96 8544ft 264kts
01-Aug-20 21:17 36.007314 -115.042635 96 8032ft 263kts
01-Aug-20 21:18 36.001814 -114.953737 96 6784ft 259kts
01-Aug-20 21:19 35.996435 -114.865105 96 6017ft 259kts
01-Aug-20 21:20 35.990990 -114.776321 96 6011ft 259kts
01-Aug-20 21:21 35.998144 -114.690178 45 5992ft 260kts
01-Aug-20 21:22 36.057613 -114.692179 305 6002ft 232kts
01-Aug-20 21:23 36.074173 -114.764619 268 5996ft 223kts
01-Aug-20 21:24 36.073924 -114.841448 267 5998ft 224kts
01-Aug-20 21:25 36.073855 -114.917946 268 5442ft 214kts
01-Aug-20 21:26 36.073802 -114.988708 267 4384ft 186kts
01-Aug-20 21:27 36.073759 -115.043151 267 3526ft 148kts
01-Aug-20 21:28 36.073699 -115.095171 267 2714ft 150kts
01-Aug-20 21:29 36.073692 -115.144230 268 2195ft 99kts
01-Aug-20 21:30 36.074763 -115.155323 300 2195ft 0kts
01-Aug-20 21:31 36.074772 -115.155342 300 2195ft 1kts
01-Aug-20 21:32 36.077133 -115.158110 329 2195ft 20kts
01-Aug-20 21:37 34.196809 -118.350593 181 729ft 0kts
01-Aug-20 21:38 34.196809 -118.350593 181 729ft 0kts
01-Aug-20 21:39 34.196809 -118.350593 181 729ft 0kts
01-Aug-20 21:40 34.196809 -118.350593 181 729ft 0kts
01-Aug-20 21:41 34.196809 -118.350593 181 729ft 0kts
01-Aug-20 21:42 34.196809 -118.350593 181 729ft 0kts
01-Aug-20 21:43 34.196809 -118.350593 181 729ft 0kts
01-Aug-20 21:45 34.196809 -118.350593 181 729ft 0kts

Navigation Log

Ident Type
Flight plan parsing failed, navigation log unavailable